Time;durP1;ratioP1;P1;durP2;ratioP2;P2;SDS_P1;SDS_P2;PMS_P1;PMS_P2;Temp;Humidity;BMP_temperature;BMP_pressure;BME280_temperature;BME280_humidity;BME280_pressure;Samples;Min_cycle;Max_cycle;Signal;HPM_P1;HPM_P2
2021/07/26 00:01:40;;;;;;;;;;;14.10;97.90;;;;;;5095315;28;19924;-65
2021/07/26 00:04:06;;;;;;;;;;;14.20;97.60;;;;;;5095864;28;20388;-67
2021/07/26 00:06:34;;;;;;;;;;;14.30;97.70;;;;;;5095548;28;19908;-66
2021/07/26 00:09:01;;;;;;;;;;;14.50;96.80;;;;;;5095560;28;20424;-64
2021/07/26 00:11:27;;;;;;;;;;;14.50;96.60;;;;;;5095525;28;19951;-64
2021/07/26 00:13:54;;;;;;;;;;;14.60;96.90;;;;;;5095139;28;19915;-65
2021/07/26 00:16:21;;;;;;;;;;;14.70;96.80;;;;;;5095308;28;19915;-64
2021/07/26 00:18:47;;;;;;;;;;;14.70;96.70;;;;;;5095384;28;20255;-64
2021/07/26 00:21:14;;;;;;;;;;;14.70;96.40;;;;;;5095277;28;19920;-66
2021/07/26 00:23:40;;;;;;;;;;;14.70;96.60;;;;;;5095394;28;19931;-66
2021/07/26 00:26:07;;;;;;;;;;;14.70;96.80;;;;;;5095412;28;20193;-68
2021/07/26 00:28:34;;;;;;;;;;;14.80;96.80;;;;;;5095130;28;19930;-66
2021/07/26 00:31:00;;;;;;;;;;;14.80;96.80;;;;;;5095035;28;19930;-67
2021/07/26 00:34:06;;;;;;;;;;;14.90;96.90;;;;;;5095104;28;19928;-66
2021/07/26 00:36:33;;;;;;;;;;;14.90;96.90;;;;;;5083546;28;19908;-65
2021/07/26 00:39:00;;;;;;;;;;;15.00;96.50;;;;;;5093977;28;20011;-66
2021/07/26 00:41:27;;;;;;;;;;;15.00;96.80;;;;;;5094890;28;19916;-67
2021/07/26 00:43:54;;;;;;;;;;;15.20;96.70;;;;;;5094449;28;19924;-65
2021/07/26 00:46:20;;;;;;;;;;;15.30;96.30;;;;;;5094947;28;19994;-65
2021/07/26 00:48:52;;;;;;;;;;;15.40;96.20;;;;;;5094830;28;19961;-65
2021/07/26 00:51:22;;;;;;;;;;;15.50;96.10;;;;;;5094761;28;19908;-65
2021/07/26 00:53:49;;;;;;;;;;;15.50;95.80;;;;;;5094908;28;20358;-65
2021/07/26 00:56:16;;;;;;;;;;;15.70;95.50;;;;;;5094859;28;19908;-65
2021/07/26 00:58:43;;;;;;;;;;;15.90;94.90;;;;;;5094469;28;19999;-65
2021/07/26 01:01:13;;;;;;;;;;;16.00;94.60;;;;;;5094513;28;19974;-66
2021/07/26 01:03:42;;;;;;;;;;;16.10;94.10;;;;;;5094369;28;19947;-65
2021/07/26 01:06:08;;;;;;;;;;;16.10;94.20;;;;;;5094695;28;19954;-66
2021/07/26 01:08:36;;;;;;;;;;;16.20;93.80;;;;;;5094513;28;19916;-65
2021/07/26 01:11:06;;;;;;;;;;;16.20;93.30;;;;;;5094316;28;20354;-65
2021/07/26 01:13:33;;;;;;;;;;;16.30;93.60;;;;;;5094038;28;20316;-66
2021/07/26 01:15:59;;;;;;;;;;;16.30;93.40;;;;;;5094260;28;19919;-65
2021/07/26 01:18:27;;;;;;;;;;;16.30;93.10;;;;;;5094226;28;19908;-68
2021/07/26 01:20:56;;;;;;;;;;;16.40;92.90;;;;;;5094155;28;20389;-66
2021/07/26 01:23:24;;;;;;;;;;;16.60;92.70;;;;;;5094196;28;20294;-68
2021/07/26 01:25:51;;;;;;;;;;;16.80;92.10;;;;;;5094068;28;19915;-68
2021/07/26 01:28:18;;;;;;;;;;;17.00;92.00;;;;;;5093907;28;19991;-68
2021/07/26 01:30:46;;;;;;;;;;;17.00;91.70;;;;;;5094011;28;19912;-68
2021/07/26 01:33:13;;;;;;;;;;;17.00;91.30;;;;;;5093895;28;20275;-67
2021/07/26 01:35:40;;;;;;;;;;;16.80;91.70;;;;;;5093553;28;19973;-66
2021/07/26 01:38:08;;;;;;;;;;;16.70;91.80;;;;;;5093881;28;19999;-67
2021/07/26 01:40:36;;;;;;;;;;;16.50;92.60;;;;;;5093959;28;19916;-67
2021/07/26 01:43:04;;;;;;;;;;;16.50;92.10;;;;;;5093405;28;19916;-68
2021/07/26 01:45:36;;;;;;;;;;;16.40;91.80;;;;;;5093500;28;19924;-65
2021/07/26 01:48:04;;;;;;;;;;;16.40;92.20;;;;;;5093835;28;19908;-66
2021/07/26 01:50:37;;;;;;;;;;;16.30;92.20;;;;;;5093394;28;19947;-66
2021/07/26 01:53:04;;;;;;;;;;;16.30;92.10;;;;;;5093735;28;20385;-66
2021/07/26 01:55:37;;;;;;;;;;;16.30;92.00;;;;;;5093551;28;20003;-65
2021/07/26 01:58:04;;;;;;;;;;;16.40;92.70;;;;;;5093462;28;20096;-66
2021/07/26 02:00:30;;;;;;;;;;;16.30;92.30;;;;;;5093243;28;19923;-65
2021/07/26 02:02:57;;;;;;;;;;;16.30;92.80;;;;;;5093272;28;20274;-65
2021/07/26 02:05:24;;;;;;;;;;;16.30;92.40;;;;;;5093427;28;19908;-67
2021/07/26 02:07:51;;;;;;;;;;;16.20;92.30;;;;;;5093362;28;19931;-66
2021/07/26 02:10:18;;;;;;;;;;;16.30;92.40;;;;;;5126151;27;19908;-68
2021/07/26 02:12:44;;;;;;;;;;;16.40;91.60;;;;;;5093061;28;19912;-68
2021/07/26 02:15:11;;;;;;;;;;;16.50;91.80;;;;;;5093227;28;19908;-68
2021/07/26 02:17:37;;;;;;;;;;;16.60;91.80;;;;;;5093034;28;19954;-67
2021/07/26 02:20:04;;;;;;;;;;;16.60;92.00;;;;;;5093106;28;20355;-65
2021/07/26 02:22:31;;;;;;;;;;;16.60;91.70;;;;;;5093337;28;19912;-67
2021/07/26 02:24:58;;;;;;;;;;;16.80;91.70;;;;;;5093241;28;19915;-68
2021/07/26 02:27:25;;;;;;;;;;;17.00;91.50;;;;;;5093438;28;19958;-68
2021/07/26 02:29:52;;;;;;;;;;;17.10;91.10;;;;;;5093203;28;20378;-66
2021/07/26 02:32:18;;;;;;;;;;;17.10;90.90;;;;;;5093625;28;19912;-68
2021/07/26 02:34:45;;;;;;;;;;;17.10;90.90;;;;;;5093230;28;19912;-68
2021/07/26 02:37:11;;;;;;;;;;;17.30;90.90;;;;;;5093367;28;19915;-67
2021/07/26 02:39:38;;;;;;;;;;;17.40;90.90;;;;;;5093116;28;20003;-66
2021/07/26 02:42:05;;;;;;;;;;;17.50;90.30;;;;;;5093153;28;20019;-65
2021/07/26 02:44:32;;;;;;;;;;;17.50;90.10;;;;;;5093170;28;19927;-65
2021/07/26 02:46:58;;;;;;;;;;;17.60;90.10;;;;;;5093471;28;20019;-66
2021/07/26 02:49:25;;;;;;;;;;;17.50;90.50;;;;;;5093093;28;19956;-64
2021/07/26 02:51:52;;;;;;;;;;;17.60;90.20;;;;;;5092898;28;20377;-65
2021/07/26 02:54:18;;;;;;;;;;;17.70;90.20;;;;;;5092668;28;19915;-65
2021/07/26 02:56:45;;;;;;;;;;;17.70;89.70;;;;;;5092740;28;19998;-67
2021/07/26 02:59:11;;;;;;;;;;;17.70;89.40;;;;;;5092361;28;19919;-67
2021/07/26 03:01:38;;;;;;;;;;;17.60;88.70;;;;;;5091900;28;19974;-66
2021/07/26 03:04:05;;;;;;;;;;;17.50;88.70;;;;;;5092334;28;19908;-67
2021/07/26 03:06:32;;;;;;;;;;;17.50;89.80;;;;;;5092413;28;20042;-67
2021/07/26 03:08:58;;;;;;;;;;;17.50;89.90;;;;;;5092378;28;20003;-64
2021/07/26 03:11:25;;;;;;;;;;;17.40;88.90;;;;;;5092243;28;19958;-67
2021/07/26 03:13:52;;;;;;;;;;;17.40;88.70;;;;;;5092002;28;19956;-67
2021/07/26 03:16:18;;;;;;;;;;;17.30;90.10;;;;;;5092425;28;20283;-64
2021/07/26 03:18:45;;;;;;;;;;;17.30;90.20;;;;;;5092426;28;19908;-64
2021/07/26 03:21:15;;;;;;;;;;;17.30;90.10;;;;;;5092482;28;19916;-66
2021/07/26 03:23:42;;;;;;;;;;;17.30;90.20;;;;;;5092057;28;20269;-66
2021/07/26 03:26:09;;;;;;;;;;;17.20;90.10;;;;;;5092285;28;19916;-64
2021/07/26 03:28:36;;;;;;;;;;;17.20;90.30;;;;;;5091960;28;19912;-67
2021/07/26 03:31:02;;;;;;;;;;;17.10;90.70;;;;;;5092209;28;19961;-64
2021/07/26 03:33:30;;;;;;;;;;;17.00;90.30;;;;;;5092201;28;19981;-65
2021/07/26 03:35:56;;;;;;;;;;;17.00;90.60;;;;;;5124850;28;19918;-65
2021/07/26 03:38:24;;;;;;;;;;;17.10;90.80;;;;;;5091861;28;20098;-65
2021/07/26 03:40:51;;;;;;;;;;;17.00;90.50;;;;;;5091748;28;19912;-66
2021/07/26 03:43:18;;;;;;;;;;;17.10;90.30;;;;;;5091868;28;19959;-65
2021/07/26 03:45:45;;;;;;;;;;;17.10;88.40;;;;;;5092215;28;19937;-65
2021/07/26 03:48:11;;;;;;;;;;;17.10;87.40;;;;;;5092116;28;19912;-67
2021/07/26 03:50:38;;;;;;;;;;;17.00;85.30;;;;;;5092015;28;20362;-67
2021/07/26 03:53:04;;;;;;;;;;;17.10;85.40;;;;;;5092228;28;20359;-66
2021/07/26 03:55:32;;;;;;;;;;;17.10;84.90;;;;;;5081464;28;19908;-66
2021/07/26 03:57:59;;;;;;;;;;;17.10;85.40;;;;;;5071900;28;19953;-66
2021/07/26 04:00:27;;;;;;;;;;;17.10;85.40;;;;;;5071227;28;19917;-66
2021/07/26 04:03:04;;;;;;;;;;;17.10;85.60;;;;;;5071340;28;19913;-67
2021/07/26 04:08:02;;;;;;;;;;;17.00;86.70;;;;;;5072252;28;19915;-66
2021/07/26 04:10:29;;;;;;;;;;;16.90;87.10;;;;;;5071773;28;20264;-67
2021/07/26 04:12:56;;;;;;;;;;;17.00;86.20;;;;;;5071835;28;20003;-67
2021/07/26 04:15:23;;;;;;;;;;;17.10;85.40;;;;;;5075420;28;19920;-68
2021/07/26 04:17:49;;;;;;;;;;;17.20;84.00;;;;;;5075313;28;19942;-67
2021/07/26 04:20:16;;;;;;;;;;;17.20;83.90;;;;;;5075316;28;19919;-67
2021/07/26 04:22:43;;;;;;;;;;;17.20;84.40;;;;;;5075333;28;19970;-67
2021/07/26 04:25:10;;;;;;;;;;;17.10;85.20;;;;;;5075608;28;19915;-67
2021/07/26 04:27:36;;;;;;;;;;;17.20;83.20;;;;;;5075593;28;19908;-65
2021/07/26 04:30:04;;;;;;;;;;;17.20;83.40;;;;;;5075836;28;19962;-66
2021/07/26 04:32:31;;;;;;;;;;;17.10;84.20;;;;;;5075654;28;20283;-65
2021/07/26 04:35:04;;;;;;;;;;;17.20;82.30;;;;;;5075611;28;19908;-65
2021/07/26 04:37:30;;;;;;;;;;;17.10;81.70;;;;;;5075015;28;19909;-64
2021/07/26 04:39:57;;;;;;;;;;;17.20;82.50;;;;;;5075165;28;20428;-67
2021/07/26 04:42:24;;;;;;;;;;;17.10;81.60;;;;;;5075143;28;19962;-65
2021/07/26 04:44:50;;;;;;;;;;;17.10;81.80;;;;;;5074804;28;19921;-65
2021/07/26 04:47:17;;;;;;;;;;;17.10;82.20;;;;;;5106229;28;19909;-65
2021/07/26 04:49:44;;;;;;;;;;;17.10;80.50;;;;;;5074452;28;19995;-65
2021/07/26 04:52:10;;;;;;;;;;;17.20;80.40;;;;;;5074936;28;19916;-67
2021/07/26 04:54:37;;;;;;;;;;;17.20;80.10;;;;;;5074113;28;20050;-64
2021/07/26 04:57:04;;;;;;;;;;;17.20;79.90;;;;;;5072935;28;19912;-65
2021/07/26 04:59:31;;;;;;;;;;;17.30;80.30;;;;;;5074324;28;19916;-65
2021/07/26 05:01:57;;;;;;;;;;;17.40;79.60;;;;;;5074549;28;19916;-65
2021/07/26 05:04:24;;;;;;;;;;;17.30;79.90;;;;;;5074340;28;19913;-66
2021/07/26 05:06:50;;;;;;;;;;;17.30;80.20;;;;;;5074235;28;20355;-65
2021/07/26 05:09:20;;;;;;;;;;;17.30;80.60;;;;;;5074350;28;19916;-64
2021/07/26 05:11:47;;;;;;;;;;;17.30;80.30;;;;;;5073704;28;20343;-68
2021/07/26 05:14:13;;;;;;;;;;;17.20;79.20;;;;;;5073473;28;20001;-65
2021/07/26 05:16:40;;;;;;;;;;;17.30;79.60;;;;;;5074202;28;19958;-68
2021/07/26 05:19:08;;;;;;;;;;;17.20;80.60;;;;;;5074044;28;19930;-64
2021/07/26 05:21:34;;;;;;;;;;;17.20;80.30;;;;;;5073830;28;20370;-65
2021/07/26 05:24:04;;;;;;;;;;;17.10;80.80;;;;;;5074053;28;19908;-68
2021/07/26 05:26:31;;;;;;;;;;;17.10;81.10;;;;;;5072980;28;19955;-66
2021/07/26 05:28:57;;;;;;;;;;;17.10;80.80;;;;;;5073255;28;19987;-64
2021/07/26 05:31:24;;;;;;;;;;;17.10;80.60;;;;;;5074195;28;19956;-65
2021/07/26 05:33:57;;;;;;;;;;;17.10;80.20;;;;;;5073825;28;19919;-64
2021/07/26 05:36:24;;;;;;;;;;;17.00;80.70;;;;;;5073567;28;20332;-65
2021/07/26 05:38:51;;;;;;;;;;;17.00;81.00;;;;;;5073739;28;19915;-65
2021/07/26 05:41:18;;;;;;;;;;;16.90;81.50;;;;;;5072769;28;19916;-66
2021/07/26 05:43:58;;;;;;;;;;;16.80;82.90;;;;;;5070159;28;19924;-66
2021/07/26 05:46:25;;;;;;;;;;;16.70;82.80;;;;;;5071516;28;20363;-65
2021/07/26 05:48:51;;;;;;;;;;;16.60;82.10;;;;;;5071176;28;20394;-66
2021/07/26 05:51:27;;;;;;;;;;;16.60;84.30;;;;;;5071250;28;19944;-66
2021/07/26 05:53:54;;;;;;;;;;;16.60;82.10;;;;;;5071046;28;19951;-67
2021/07/26 05:56:20;;;;;;;;;;;16.50;82.80;;;;;;5070387;28;20037;-66
2021/07/26 05:58:49;;;;;;;;;;;16.50;82.80;;;;;;5071332;28;19908;-64
2021/07/26 06:01:47;;;;;;;;;;;16.50;82.70;;;;;;5071383;28;19920;-66
2021/07/26 06:04:21;;;;;;;;;;;16.40;84.90;;;;;;5071561;28;19908;-66
2021/07/26 06:06:53;;;;;;;;;;;16.40;82.80;;;;;;5071164;28;20406;-67
2021/07/26 06:09:21;;;;;;;;;;;16.40;83.40;;;;;;5070523;28;20003;-65
2021/07/26 06:11:51;;;;;;;;;;;16.50;82.90;;;;;;5070406;28;19916;-68
2021/07/26 06:14:18;;;;;;;;;;;16.40;83.10;;;;;;5071176;28;19909;-67
2021/07/26 06:16:54;;;;;;;;;;;16.40;83.80;;;;;;5071000;28;20382;-67
2021/07/26 06:19:41;;;;;;;;;;;16.40;83.40;;;;;;5070861;28;20387;-65
2021/07/26 06:22:20;;;;;;;;;;;16.40;83.30;;;;;;5070424;28;19928;-67
2021/07/26 06:24:46;;;;;;;;;;;16.40;84.10;;;;;;5070728;28;20302;-65
2021/07/26 06:27:13;;;;;;;;;;;16.30;84.10;;;;;;5070609;28;20367;-65
2021/07/26 06:29:52;;;;;;;;;;;16.30;84.80;;;;;;5070674;28;20651;-64
2021/07/26 06:32:25;;;;;;;;;;;16.20;84.90;;;;;;5070838;28;20397;-67
2021/07/26 06:34:52;;;;;;;;;;;16.20;85.20;;;;;;5070303;28;19919;-66
2021/07/26 06:37:21;;;;;;;;;;;16.10;85.20;;;;;;5069537;28;20007;-65
2021/07/26 06:39:48;;;;;;;;;;;16.20;84.90;;;;;;5070090;28;19915;-65
2021/07/26 06:42:15;;;;;;;;;;;16.20;84.40;;;;;;5070619;28;19916;-64
2021/07/26 06:44:45;;;;;;;;;;;16.20;84.20;;;;;;5070259;28;19942;-66
2021/07/26 06:47:11;;;;;;;;;;;16.20;84.40;;;;;;5070218;28;19924;-65
2021/07/26 06:49:38;;;;;;;;;;;16.20;84.70;;;;;;5070223;28;19913;-66
2021/07/26 06:52:08;;;;;;;;;;;16.10;85.80;;;;;;5070274;28;20290;-66
2021/07/26 06:54:34;;;;;;;;;;;16.10;85.60;;;;;;5070365;28;20353;-67
2021/07/26 06:57:01;;;;;;;;;;;16.00;85.80;;;;;;5070190;28;19912;-65
2021/07/26 06:59:28;;;;;;;;;;;16.00;86.50;;;;;;5070318;28;19908;-67
2021/07/26 07:01:54;;;;;;;;;;;15.90;86.80;;;;;;5069677;28;19964;-67
2021/07/26 07:04:21;;;;;;;;;;;15.90;87.90;;;;;;5070430;28;20362;-67
2021/07/26 07:06:48;;;;;;;;;;;15.80;87.60;;;;;;5070277;28;19920;-65
2021/07/26 07:09:15;;;;;;;;;;;15.80;88.50;;;;;;5070161;28;19909;-65
2021/07/26 07:11:41;;;;;;;;;;;15.70;88.80;;;;;;5068592;28;20498;-67
2021/07/26 07:14:08;;;;;;;;;;;15.70;89.00;;;;;;5070058;28;19943;-66
2021/07/26 07:16:35;;;;;;;;;;;15.70;89.20;;;;;;5070207;28;20366;-66
2021/07/26 07:19:01;;;;;;;;;;;15.80;88.70;;;;;;5070331;28;19954;-67
2021/07/26 07:21:30;;;;;;;;;;;15.80;89.00;;;;;;5069821;28;19917;-67
2021/07/26 07:24:00;;;;;;;;;;;15.80;88.70;;;;;;5070009;28;20295;-66
2021/07/26 07:26:27;;;;;;;;;;;15.80;89.00;;;;;;5069712;28;19999;-66
2021/07/26 07:28:54;;;;;;;;;;;15.70;88.70;;;;;;5070298;28;19912;-65
2021/07/26 07:31:26;;;;;;;;;;;15.70;88.90;;;;;;5070083;28;19916;-65
2021/07/26 07:33:57;;;;;;;;;;;15.60;89.40;;;;;;5069945;28;19962;-67
2021/07/26 07:36:43;;;;;;;;;;;15.60;90.00;;;;;;5070057;28;19913;-67
2021/07/26 07:39:33;;;;;;;;;;;;;;;;;;;;;
2021/07/26 07:42:09;;;;;;;;;;;;;;;;;;;;;
2021/07/26 07:44:45;;;;;;;;;;;15.60;89.80;;;;;;5067959;28;20264;-66
2021/07/26 07:47:14;;;;;;;;;;;15.60;90.10;;;;;;5070036;28;19927;-68
2021/07/26 07:49:42;;;;;;;;;;;15.50;90.10;;;;;;5072707;28;19915;-64
2021/07/26 07:52:12;;;;;;;;;;;15.50;90.50;;;;;;5073607;28;20001;-66
2021/07/26 07:54:38;;;;;;;;;;;15.50;90.30;;;;;;5073282;28;19940;-66
2021/07/26 07:57:09;;;;;;;;;;;15.50;90.40;;;;;;5073285;28;19915;-66
2021/07/26 07:59:35;;;;;;;;;;;15.50;90.40;;;;;;5073400;28;19909;-68
2021/07/26 08:02:07;;;;;;;;;;;15.50;90.40;;;;;;5073366;28;20007;-65
2021/07/26 08:04:39;;;;;;;;;;;15.60;90.50;;;;;;5073304;28;19912;-64
2021/07/26 08:07:06;;;;;;;;;;;15.50;90.70;;;;;;5073019;28;19909;-66
2021/07/26 08:09:32;;;;;;;;;;;15.50;90.70;;;;;;5072704;28;20000;-64
2021/07/26 08:12:02;;;;;;;;;;;15.40;90.80;;;;;;5073333;28;19908;-66
2021/07/26 08:14:29;;;;;;;;;;;15.40;91.30;;;;;;5073251;28;20291;-65
2021/07/26 08:17:00;;;;;;;;;;;15.40;91.10;;;;;;5073182;28;20383;-66
2021/07/26 08:19:26;;;;;;;;;;;15.30;91.40;;;;;;5072810;28;19908;-66
2021/07/26 08:21:53;;;;;;;;;;;15.30;91.60;;;;;;5072451;28;19917;-67
2021/07/26 08:24:20;;;;;;;;;;;15.20;92.00;;;;;;5072980;28;20294;-65
2021/07/26 08:26:49;;;;;;;;;;;15.20;92.10;;;;;;5072951;28;20374;-66
2021/07/26 08:29:16;;;;;;;;;;;15.20;91.90;;;;;;5072934;28;20386;-66
2021/07/26 08:31:42;;;;;;;;;;;15.20;92.30;;;;;;5072620;28;20429;-64
2021/07/26 08:34:09;;;;;;;;;;;15.10;92.40;;;;;;5073069;28;20371;-65
2021/07/26 08:36:36;;;;;;;;;;;15.20;92.40;;;;;;5072799;28;19909;-65
2021/07/26 08:39:03;;;;;;;;;;;15.20;92.40;;;;;;5072878;28;19912;-64
2021/07/26 08:41:30;;;;;;;;;;;15.20;92.70;;;;;;5072354;28;19924;-64
2021/07/26 08:43:56;;;;;;;;;;;15.20;92.70;;;;;;5104917;28;19952;-65
2021/07/26 08:46:24;;;;;;;;;;;15.20;92.90;;;;;;5072427;28;19909;-64
2021/07/26 08:48:51;;;;;;;;;;;15.10;93.50;;;;;;5072618;28;19908;-67
2021/07/26 08:51:21;;;;;;;;;;;15.10;93.30;;;;;;5072620;28;19966;-66
2021/07/26 08:53:49;;;;;;;;;;;15.10;93.50;;;;;;5072500;28;19955;-64
2021/07/26 08:56:19;;;;;;;;;;;15.10;93.50;;;;;;5072402;28;19986;-64
2021/07/26 08:58:46;;;;;;;;;;;15.10;93.50;;;;;;5072102;28;19908;-65
2021/07/26 09:01:14;;;;;;;;;;;15.10;93.70;;;;;;5071498;28;19928;-64
2021/07/26 09:03:41;;;;;;;;;;;15.10;94.00;;;;;;5072360;28;19912;-65
2021/07/26 09:06:08;;;;;;;;;;;15.00;94.10;;;;;;5072518;28;20291;-65
2021/07/26 09:08:36;;;;;;;;;;;15.00;94.50;;;;;;5072353;28;20427;-65
2021/07/26 09:11:04;;;;;;;;;;;15.00;94.30;;;;;;5071802;28;19912;-65
2021/07/26 09:13:39;;;;;;;;;;;15.00;94.50;;;;;;5072023;28;20579;-65
2021/07/26 09:16:19;;;;;;;;;;;15.00;94.60;;;;;;5072007;28;19908;-65
2021/07/26 09:18:47;;;;;;;;;;;14.90;94.90;;;;;;5072263;28;19914;-66
2021/07/26 09:21:13;;;;;;;;;;;15.00;94.90;;;;;;5072246;28;20018;-66
2021/07/26 09:23:58;;;;;;;;;;;15.00;95.10;;;;;;5071637;28;19919;-65
2021/07/26 09:26:26;;;;;;;;;;;14.90;95.40;;;;;;5071852;28;19908;-65
2021/07/26 09:28:53;;;;;;;;;;;14.90;95.50;;;;;;5071888;28;19912;-64
2021/07/26 09:31:19;;;;;;;;;;;14.90;95.30;;;;;;5071698;28;19927;-67
2021/07/26 09:33:46;;;;;;;;;;;14.90;96.20;;;;;;5071562;28;19908;-67
2021/07/26 09:36:20;;;;;;;;;;;14.80;95.60;;;;;;5071720;28;19908;-65
2021/07/26 09:38:47;;;;;;;;;;;14.80;95.90;;;;;;5071669;28;19913;-65
2021/07/26 09:41:14;;;;;;;;;;;14.80;95.80;;;;;;5071424;28;19923;-65
2021/07/26 09:43:41;;;;;;;;;;;14.80;95.90;;;;;;5071155;28;19954;-65
2021/07/26 09:46:08;;;;;;;;;;;14.80;96.10;;;;;;5073778;28;19908;-66
2021/07/26 09:48:35;;;;;;;;;;;14.70;96.30;;;;;;5073494;28;19908;-66
2021/07/26 09:51:05;;;;;;;;;;;14.70;96.60;;;;;;5073563;28;19954;-65
2021/07/26 09:53:32;;;;;;;;;;;14.70;96.50;;;;;;5073197;28;20353;-66
2021/07/26 09:55:59;;;;;;;;;;;14.80;96.50;;;;;;5073136;28;19916;-66
2021/07/26 09:58:36;;;;;;;;;;;14.70;96.40;;;;;;5073490;28;20248;-66
2021/07/26 10:01:04;;;;;;;;;;;14.80;96.50;;;;;;5073403;28;20367;-65
2021/07/26 10:03:31;;;;;;;;;;;14.80;96.90;;;;;;5073114;28;19913;-65
2021/07/26 10:05:59;;;;;;;;;;;14.80;96.80;;;;;;5073120;28;19975;-66
2021/07/26 10:08:27;;;;;;;;;;;14.80;96.60;;;;;;5073177;28;19943;-65
2021/07/26 10:10:54;;;;;;;;;;;14.80;96.60;;;;;;5072948;28;19908;-64
2021/07/26 10:13:21;;;;;;;;;;;14.80;96.90;;;;;;5073285;28;19919;-65
2021/07/26 10:15:48;;;;;;;;;;;14.80;96.70;;;;;;5072710;28;19970;-65
2021/07/26 10:18:15;;;;;;;;;;;14.90;96.90;;;;;;5072560;28;19962;-65
2021/07/26 10:20:47;;;;;;;;;;;14.90;96.50;;;;;;5105030;28;19912;-65
2021/07/26 10:23:15;;;;;;;;;;;14.80;96.40;;;;;;5072901;28;19913;-64
2021/07/26 10:25:45;;;;;;;;;;;14.80;96.20;;;;;;5072439;28;20003;-67
2021/07/26 10:28:24;;;;;;;;;;;14.90;96.20;;;;;;5071625;28;19909;-67
2021/07/26 10:30:51;;;;;;;;;;;14.90;96.60;;;;;;5072820;28;19987;-67
2021/07/26 10:33:17;;;;;;;;;;;14.80;96.20;;;;;;5072033;28;19909;-66
2021/07/26 10:35:48;;;;;;;;;;;14.90;96.40;;;;;;5072544;28;19915;-67
2021/07/26 10:38:35;;;;;;;;;;;14.90;96.20;;;;;;5072604;28;19944;-66
2021/07/26 10:41:02;;;;;;;;;;;14.90;95.90;;;;;;5072421;28;20003;-68
2021/07/26 10:44:00;;;;;;;;;;;14.90;95.80;;;;;;5072440;28;19919;-66
2021/07/26 10:46:27;;;;;;;;;;;14.90;96.00;;;;;;5087150;28;20323;-66
2021/07/26 10:48:53;;;;;;;;;;;14.80;95.90;;;;;;5072050;28;19963;-67
2021/07/26 10:51:36;;;;;;;;;;;14.80;95.70;;;;;;5072393;28;19995;-65
2021/07/26 10:54:03;;;;;;;;;;;14.80;95.90;;;;;;5072402;28;19944;-64
2021/07/26 10:56:49;;;;;;;;;;;14.80;96.00;;;;;;5072303;28;19912;-66
2021/07/26 10:59:16;;;;;;;;;;;14.80;96.00;;;;;;5072262;28;20382;-66
2021/07/26 11:01:56;;;;;;;;;;;14.70;96.60;;;;;;5071318;28;19916;-66
2021/07/26 11:04:36;;;;;;;;;;;14.70;96.60;;;;;;5072420;28;20363;-66
2021/07/26 11:07:06;;;;;;;;;;;14.70;96.40;;;;;;5072591;28;19959;-65
2021/07/26 11:09:34;;;;;;;;;;;14.70;96.40;;;;;;5072446;28;19952;-65
2021/07/26 11:12:05;;;;;;;;;;;14.70;96.40;;;;;;5072351;28;19927;-65
2021/07/26 11:14:31;;;;;;;;;;;14.70;96.50;;;;;;5072582;28;19922;-67
2021/07/26 11:17:02;;;;;;;;;;;14.70;96.40;;;;;;5071798;28;19954;-68
2021/07/26 11:19:32;;;;;;;;;;;14.70;96.10;;;;;;5072448;28;19908;-65
2021/07/26 11:21:59;;;;;;;;;;;14.70;96.30;;;;;;5072508;28;20326;-66
2021/07/26 11:24:42;;;;;;;;;;;14.70;96.20;;;;;;5075155;28;20106;-68
2021/07/26 11:27:10;;;;;;;;;;;14.70;96.30;;;;;;5076277;28;19912;-66
2021/07/26 11:29:37;;;;;;;;;;;14.70;96.40;;;;;;5076100;28;20008;-68
2021/07/26 11:32:04;;;;;;;;;;;14.70;96.50;;;;;;5075740;28;20373;-66
2021/07/26 11:34:33;;;;;;;;;;;14.70;96.40;;;;;;5075976;28;19995;-66
2021/07/26 11:37:18;;;;;;;;;;;14.70;96.30;;;;;;5076030;28;19959;-66
2021/07/26 11:39:45;;;;;;;;;;;14.70;96.30;;;;;;5075544;28;20325;-66
2021/07/26 11:42:12;;;;;;;;;;;14.70;96.60;;;;;;5075979;28;19970;-66
2021/07/26 11:44:39;;;;;;;;;;;14.70;96.70;;;;;;5076030;28;19956;-66
2021/07/26 11:47:06;;;;;;;;;;;14.60;96.50;;;;;;5075637;28;19938;-67
2021/07/26 11:49:32;;;;;;;;;;;14.60;96.60;;;;;;5075588;28;19934;-67
2021/07/26 11:52:09;;;;;;;;;;;14.60;96.20;;;;;;5075822;28;19947;-65
2021/07/26 11:54:35;;;;;;;;;;;14.60;96.50;;;;;;5075683;28;19909;-66
2021/07/26 11:57:06;;;;;;;;;;;14.70;96.10;;;;;;5075619;28;20301;-65
2021/07/26 11:59:34;;;;;;;;;;;14.70;96.20;;;;;;5075498;28;19908;-66
2021/07/26 12:02:06;;;;;;;;;;;14.80;96.00;;;;;;5074947;28;19943;-67
2021/07/26 12:04:34;;;;;;;;;;;14.70;96.10;;;;;;5075523;28;20252;-68
2021/07/26 12:07:02;;;;;;;;;;;14.80;95.90;;;;;;5075314;28;19961;-66
2021/07/26 12:09:29;;;;;;;;;;;14.80;95.70;;;;;;5075212;28;19954;-66
2021/07/26 12:12:08;;;;;;;;;;;14.80;95.90;;;;;;5075277;28;19961;-68
2021/07/26 12:14:35;;;;;;;;;;;14.70;96.00;;;;;;5075334;28;19916;-68
2021/07/26 12:17:03;;;;;;;;;;;14.70;95.80;;;;;;5085813;28;19908;-67
2021/07/26 12:19:30;;;;;;;;;;;14.70;95.70;;;;;;5075297;28;19912;-67
2021/07/26 12:21:59;;;;;;;;;;;14.70;96.10;;;;;;5075304;28;19916;-68
2021/07/26 12:24:44;;;;;;;;;;;14.70;95.90;;;;;;5075088;28;19916;-69
2021/07/26 12:27:11;;;;;;;;;;;14.70;96.30;;;;;;5075190;28;20003;-66
2021/07/26 12:29:52;;;;;;;;;;;14.70;96.10;;;;;;5074928;28;19931;-68
2021/07/26 12:32:19;;;;;;;;;;;14.70;96.10;;;;;;5075250;28;19915;-68
2021/07/26 12:35:04;;;;;;;;;;;14.70;96.20;;;;;;5073878;28;19916;-68
2021/07/26 12:37:30;;;;;;;;;;;14.70;96.30;;;;;;5074793;28;20362;-66
2021/07/26 12:40:11;;;;;;;;;;;14.60;96.30;;;;;;5074824;28;19916;-67
2021/07/26 12:42:38;;;;;;;;;;;14.60;96.70;;;;;;5075029;28;19916;-67
2021/07/26 12:45:18;;;;;;;;;;;14.60;96.70;;;;;;5074701;28;20386;-66
2021/07/26 12:47:44;;;;;;;;;;;14.50;96.80;;;;;;5074729;28;19998;-66
2021/07/26 12:50:11;;;;;;;;;;;14.50;96.90;;;;;;5074844;28;19908;-65
2021/07/26 12:52:38;;;;;;;;;;;14.50;97.10;;;;;;5074750;28;19919;-65
2021/07/26 12:55:05;;;;;;;;;;;14.50;97.40;;;;;;5074320;28;20374;-64
2021/07/26 12:57:32;;;;;;;;;;;14.50;97.30;;;;;;5074355;28;19915;-64
2021/07/26 12:59:58;;;;;;;;;;;14.50;97.30;;;;;;5074638;28;20328;-65
2021/07/26 13:02:25;;;;;;;;;;;14.50;97.60;;;;;;5074476;28;19917;-64
2021/07/26 13:04:51;;;;;;;;;;;14.50;97.50;;;;;;5074677;28;20363;-65
2021/07/26 13:07:18;;;;;;;;;;;14.50;97.60;;;;;;5074330;28;19919;-67
2021/07/26 13:09:45;;;;;;;;;;;14.50;97.70;;;;;;5074150;28;19915;-64
2021/07/26 13:12:12;;;;;;;;;;;14.40;98.00;;;;;;5074427;28;19908;-65
2021/07/26 13:14:38;;;;;;;;;;;14.40;97.80;;;;;;5074497;28;19908;-66
2021/07/26 13:17:06;;;;;;;;;;;14.40;98.00;;;;;;5074274;28;19908;-65
2021/07/26 13:19:32;;;;;;;;;;;14.40;98.10;;;;;;5073998;28;19909;-64
2021/07/26 13:21:59;;;;;;;;;;;14.40;97.90;;;;;;5074146;28;19922;-64
2021/07/26 13:24:26;;;;;;;;;;;14.40;98.10;;;;;;5074205;28;19909;-65
2021/07/26 13:26:52;;;;;;;;;;;14.40;98.10;;;;;;5074208;28;19909;-66
2021/07/26 13:29:19;;;;;;;;;;;14.40;98.10;;;;;;5074030;28;19908;-69
2021/07/26 13:31:45;;;;;;;;;;;14.40;98.30;;;;;;5073808;28;19909;-65
2021/07/26 13:34:12;;;;;;;;;;;14.40;98.40;;;;;;5073888;28;20375;-67
2021/07/26 13:36:39;;;;;;;;;;;14.30;98.40;;;;;;5073907;28;20001;-66
2021/07/26 13:39:06;;;;;;;;;;;14.30;98.50;;;;;;5073770;28;19916;-67
2021/07/26 13:41:33;;;;;;;;;;;14.30;98.70;;;;;;5073727;28;19956;-67
2021/07/26 13:44:00;;;;;;;;;;;14.30;99.00;;;;;;5073747;28;19920;-68
2021/07/26 13:46:26;;;;;;;;;;;14.30;99.00;;;;;;5073416;28;19916;-66
2021/07/26 13:48:53;;;;;;;;;;;14.20;98.80;;;;;;5073561;28;19946;-66
2021/07/26 13:51:19;;;;;;;;;;;14.20;98.90;;;;;;5073583;28;20276;-65
2021/07/26 13:53:46;;;;;;;;;;;14.30;98.90;;;;;;5073454;28;19991;-67
2021/07/26 13:56:13;;;;;;;;;;;14.20;99.10;;;;;;5073495;28;20355;-66
2021/07/26 13:58:39;;;;;;;;;;;14.20;99.10;;;;;;5073493;28;20003;-65
2021/07/26 14:01:06;;;;;;;;;;;14.20;99.10;;;;;;5073340;28;19917;-65
2021/07/26 14:03:33;;;;;;;;;;;14.10;99.40;;;;;;5073325;28;19908;-65
2021/07/26 14:06:03;;;;;;;;;;;14.00;99.40;;;;;;5073380;28;20312;-66
2021/07/26 14:08:29;;;;;;;;;;;14.00;99.60;;;;;;5073269;28;19909;-66
2021/07/26 14:10:56;;;;;;;;;;;13.90;99.90;;;;;;5073023;28;19909;-65
2021/07/26 14:13:23;;;;;;;;;;;13.90;99.90;;;;;;5073223;28;19995;-68
2021/07/26 14:15:49;;;;;;;;;;;13.90;99.90;;;;;;5072948;28;19935;-68
2021/07/26 14:18:16;;;;;;;;;;;13.90;99.90;;;;;;5073076;28;19909;-65
2021/07/26 14:20:43;;;;;;;;;;;13.90;99.90;;;;;;5073208;28;19913;-66
2021/07/26 14:23:10;;;;;;;;;;;13.80;99.90;;;;;;5073088;28;20290;-65
2021/07/26 14:25:36;;;;;;;;;;;13.70;99.90;;;;;;5072748;28;19908;-65
2021/07/26 14:28:03;;;;;;;;;;;13.70;99.90;;;;;;5072933;28;20355;-65
2021/07/26 14:30:30;;;;;;;;;;;13.70;99.90;;;;;;5072844;28;20011;-65